createdAt,value
2019-06-27T00:02:20.766Z,10.53
2019-06-27T00:04:48.696Z,10.87
2019-06-27T00:07:16.733Z,11.50
2019-06-27T00:09:44.715Z,10.47
2019-06-27T00:12:12.465Z,11.20
2019-06-27T00:14:40.285Z,10.63
2019-06-27T00:17:08.110Z,10.93
2019-06-27T00:19:35.942Z,11.23
2019-06-27T00:22:03.811Z,10.80
2019-06-27T00:24:31.561Z,11.00
2019-06-27T00:26:59.389Z,11.00
2019-06-27T00:29:27.381Z,10.83
2019-06-27T00:31:55.143Z,10.47
2019-06-27T00:34:22.930Z,10.37
2019-06-27T00:36:50.657Z,10.67
2019-06-27T00:39:19.492Z,10.20
2019-06-27T00:41:47.270Z,10.60
2019-06-27T00:44:15.056Z,9.73
2019-06-27T00:46:42.866Z,10.03
2019-06-27T00:49:10.623Z,10.83
2019-06-27T00:51:38.428Z,10.00
2019-06-27T00:54:06.226Z,10.13
2019-06-27T00:56:34.025Z,11.00
2019-06-27T00:59:01.768Z,10.50
2019-06-27T01:01:29.589Z,10.30
2019-06-27T01:03:57.433Z,10.33
2019-06-27T01:06:26.141Z,9.63
2019-06-27T01:08:53.914Z,10.30
2019-06-27T01:11:21.956Z,10.40
2019-06-27T01:13:49.766Z,10.23
2019-06-27T01:16:17.572Z,10.60
2019-06-27T01:18:45.288Z,10.73
2019-06-27T01:21:13.090Z,10.63
2019-06-27T01:23:40.851Z,11.73
2019-06-27T01:26:08.643Z,11.00
2019-06-27T01:28:36.403Z,10.80
2019-06-27T01:31:04.322Z,11.73
2019-06-27T01:33:32.092Z,11.10
2019-06-27T01:35:59.963Z,11.03
2019-06-27T01:38:27.765Z,11.70
2019-06-27T01:40:55.578Z,11.23
2019-06-27T01:43:23.313Z,11.57
2019-06-27T01:45:54.318Z,11.57
2019-06-27T01:48:22.072Z,11.73
2019-06-27T01:50:50.084Z,11.33
2019-06-27T01:53:17.850Z,12.20
2019-06-27T01:55:45.647Z,11.87
2019-06-27T01:58:13.402Z,11.33
2019-06-27T02:00:41.479Z,11.77
2019-06-27T02:03:09.276Z,11.60
2019-06-27T02:05:37.019Z,11.63
2019-06-27T02:08:04.827Z,11.73
2019-06-27T02:10:32.600Z,12.13
2019-06-27T02:13:00.413Z,11.97
2019-06-27T02:15:28.229Z,11.83
2019-06-27T02:17:56.010Z,12.10
2019-06-27T02:20:24.251Z,12.17
2019-06-27T02:22:52.037Z,12.13
2019-06-27T02:25:20.243Z,12.50
2019-06-27T02:28:02.507Z,12.43
2019-06-27T02:30:45.963Z,11.70
2019-06-27T02:33:13.900Z,12.07
2019-06-27T02:35:41.623Z,12.23
2019-06-27T02:38:09.487Z,12.63
2019-06-27T02:40:37.211Z,11.80
2019-06-27T02:43:05.091Z,11.77
2019-06-27T02:45:32.880Z,12.93
2019-06-27T02:48:00.643Z,11.90
2019-06-27T02:50:28.635Z,11.97
2019-06-27T02:52:56.421Z,12.33
2019-06-27T02:55:24.236Z,12.40
2019-06-27T02:57:51.982Z,12.27
2019-06-27T03:00:20.695Z,12.40
2019-06-27T03:02:48.490Z,11.77
2019-06-27T03:05:16.794Z,11.50
2019-06-27T03:07:44.561Z,12.90
2019-06-27T03:10:12.645Z,12.87
2019-06-27T03:12:40.484Z,13.30
2019-06-27T03:15:09.305Z,11.87
2019-06-27T03:17:38.894Z,12.33
2019-06-27T03:20:08.312Z,12.53
2019-06-27T03:22:36.066Z,12.37
2019-06-27T03:25:04.101Z,12.70
2019-06-27T03:27:31.889Z,12.53
2019-06-27T03:29:59.944Z,12.60
2019-06-27T03:32:27.798Z,12.83
2019-06-27T03:34:55.549Z,12.83
2019-06-27T03:37:23.371Z,12.00
2019-06-27T03:39:51.122Z,12.57
2019-06-27T03:42:18.868Z,12.97
2019-06-27T03:44:46.706Z,12.97
2019-06-27T03:47:14.457Z,12.83
2019-06-27T03:49:42.296Z,13.07
2019-06-27T03:52:09.999Z,12.73
2019-06-27T03:54:37.822Z,12.63
2019-06-27T03:57:05.557Z,12.30
2019-06-27T03:59:33.319Z,12.23
2019-06-27T04:02:01.049Z,12.30
2019-06-27T04:04:28.871Z,12.80
2019-06-27T04:06:56.643Z,13.00
2019-06-27T04:09:24.449Z,12.00
2019-06-27T04:11:52.248Z,12.20
2019-06-27T04:14:22.390Z,12.20
2019-06-27T04:16:50.150Z,12.20
2019-06-27T04:19:18.020Z,12.53
2019-06-27T04:21:45.757Z,12.53
2019-06-27T04:24:15.744Z,12.73
2019-06-27T04:26:43.517Z,12.30
2019-06-27T04:29:31.536Z,12.23
2019-06-27T04:31:41.236Z,12.97
2019-06-27T04:34:09.057Z,13.07
2019-06-27T04:36:36.859Z,13.20
2019-06-27T04:39:05.245Z,12.70
2019-06-27T04:41:32.978Z,12.03
2019-06-27T04:44:00.739Z,12.37
2019-06-27T04:46:28.555Z,12.30
2019-06-27T04:48:56.323Z,12.23
2019-06-27T04:51:24.101Z,12.63
2019-06-27T04:53:51.834Z,12.53
2019-06-27T04:56:19.651Z,12.23
2019-06-27T04:58:47.747Z,11.93
2019-06-27T05:01:15.568Z,12.10
2019-06-27T05:03:43.344Z,11.57
2019-06-27T05:06:11.143Z,12.37
2019-06-27T05:08:38.922Z,12.10
2019-06-27T05:11:06.722Z,11.43
2019-06-27T05:13:34.657Z,11.93
2019-06-27T05:16:02.523Z,12.07
2019-06-27T05:18:30.273Z,11.40
2019-06-27T05:20:58.080Z,11.93
2019-06-27T05:23:25.861Z,11.53
2019-06-27T05:25:53.663Z,11.90
2019-06-27T05:28:21.386Z,11.37
2019-06-27T05:30:51.466Z,12.27
2019-06-27T05:33:18.895Z,11.10
2019-06-27T05:35:46.673Z,11.00
2019-06-27T05:38:14.477Z,10.90
2019-06-27T05:40:42.467Z,10.03
2019-06-27T05:43:10.313Z,10.70
2019-06-27T05:45:38.115Z,9.87
2019-06-27T05:48:05.830Z,8.40
2019-06-27T05:50:33.897Z,7.73
2019-06-27T05:53:01.638Z,7.37
2019-06-27T05:55:30.788Z,7.73
2019-06-27T05:57:58.551Z,7.40
2019-06-27T06:00:29.033Z,7.33
2019-06-27T06:02:56.074Z,7.03
2019-06-27T06:05:23.902Z,6.87
2019-06-27T06:07:51.696Z,5.57
2019-06-27T06:10:19.477Z,5.90
2019-06-27T06:12:47.224Z,4.50
2019-06-27T06:15:14.944Z,4.17
2019-06-27T06:17:42.740Z,4.90
2019-06-27T06:20:10.913Z,4.03
2019-06-27T06:22:38.646Z,4.57
2019-06-27T06:25:06.585Z,4.50
2019-06-27T06:27:34.556Z,3.93
2019-06-27T06:30:02.451Z,4.00
2019-06-27T06:32:31.437Z,4.23
2019-06-27T06:34:59.246Z,4.17
2019-06-27T06:37:27.029Z,4.40
2019-06-27T06:39:54.853Z,4.80
2019-06-27T06:42:22.945Z,4.00
2019-06-27T06:44:50.738Z,3.90
2019-06-27T06:47:18.547Z,3.67
2019-06-27T06:49:46.309Z,3.50
2019-06-27T06:52:14.697Z,3.27
2019-06-27T06:54:42.521Z,3.60
2019-06-27T06:57:10.361Z,3.25
2019-06-27T06:59:38.186Z,3.30
2019-06-27T07:02:06.089Z,3.60
2019-06-27T07:04:33.908Z,3.67
2019-06-27T07:07:01.727Z,3.60
2019-06-27T07:09:29.648Z,3.55
2019-06-27T07:11:57.421Z,3.17
2019-06-27T07:14:27.161Z,3.40
2019-06-27T07:16:54.975Z,3.35
2019-06-27T07:19:22.863Z,3.55
2019-06-27T07:21:50.730Z,3.72
2019-06-27T07:24:18.522Z,3.67
2019-06-27T07:26:46.351Z,3.45
2019-06-27T07:29:14.220Z,3.55
2019-06-27T07:31:42.013Z,3.95
2019-06-27T07:34:09.800Z,3.80
2019-06-27T07:36:37.575Z,3.40
2019-06-27T07:39:05.606Z,3.15
2019-06-27T07:41:33.425Z,3.67
2019-06-27T07:44:01.419Z,3.70
2019-06-27T07:46:29.292Z,3.42
2019-06-27T07:48:59.595Z,3.47
2019-06-27T07:51:27.550Z,3.40
2019-06-27T07:53:55.388Z,2.92
2019-06-27T07:56:23.164Z,2.87
2019-06-27T07:58:51.152Z,2.87
2019-06-27T08:01:34.102Z,2.10
2019-06-27T08:03:48.589Z,2.65
2019-06-27T08:06:16.356Z,2.27
2019-06-27T08:08:44.334Z,2.17
2019-06-27T08:11:12.192Z,2.37
2019-06-27T08:13:40.015Z,2.42
2019-06-27T08:16:07.894Z,2.47
2019-06-27T08:18:35.682Z,2.20
2019-06-27T08:21:04.853Z,2.22
2019-06-27T08:23:41.507Z,2.30
2019-06-27T08:26:02.286Z,2.65
2019-06-27T08:28:30.173Z,2.60
2019-06-27T08:30:57.903Z,2.35
2019-06-27T08:33:25.758Z,2.52
2019-06-27T08:35:53.556Z,2.60
2019-06-27T08:38:21.391Z,2.42
2019-06-27T08:40:49.208Z,2.70
2019-06-27T08:43:17.104Z,2.80
2019-06-27T08:45:44.906Z,2.90
2019-06-27T08:48:12.681Z,2.70
2019-06-27T08:50:40.640Z,3.10
2019-06-27T08:53:08.507Z,2.92
2019-06-27T08:55:36.286Z,3.20
2019-06-27T08:58:04.092Z,3.20
2019-06-27T09:00:31.964Z,3.02
2019-06-27T09:02:59.867Z,2.83
2019-06-27T09:05:27.718Z,3.25
2019-06-27T09:07:55.567Z,2.72
2019-06-27T09:10:23.898Z,2.90
2019-06-27T09:12:51.628Z,2.33
2019-06-27T09:15:19.599Z,2.37
2019-06-27T09:17:47.380Z,2.75
2019-06-27T09:20:15.693Z,2.60
2019-06-27T09:22:43.499Z,2.70
2019-06-27T09:25:11.230Z,2.70
2019-06-27T09:27:39.068Z,2.30
2019-06-27T09:30:07.225Z,2.72
2019-06-27T09:32:35.005Z,2.67
2019-06-27T09:35:02.960Z,2.40
2019-06-27T09:37:30.703Z,2.77
2019-06-27T09:39:58.527Z,2.80
2019-06-27T09:42:26.341Z,2.62
2019-06-27T09:44:54.125Z,2.50
2019-06-27T09:47:21.908Z,2.60
2019-06-27T09:49:49.683Z,2.30
2019-06-27T09:52:17.514Z,2.50
2019-06-27T09:54:45.304Z,2.40
2019-06-27T09:57:13.089Z,2.20
2019-06-27T09:59:40.915Z,2.22
2019-06-27T10:02:08.767Z,2.00
2019-06-27T10:04:36.746Z,2.08
2019-06-27T10:07:04.505Z,1.95
2019-06-27T10:09:32.464Z,2.10
2019-06-27T10:12:00.509Z,2.10
2019-06-27T10:14:28.313Z,2.10
2019-06-27T10:16:58.634Z,1.90
2019-06-27T10:19:25.927Z,2.15
2019-06-27T10:21:53.743Z,1.98
2019-06-27T10:24:21.518Z,2.02
2019-06-27T10:26:49.288Z,2.42
2019-06-27T10:29:17.117Z,2.22
2019-06-27T10:31:44.853Z,2.37
2019-06-27T10:34:12.624Z,2.40
2019-06-27T10:36:40.475Z,2.20
2019-06-27T10:39:08.419Z,2.30
2019-06-27T10:41:36.207Z,2.42
2019-06-27T10:44:03.990Z,1.92
2019-06-27T10:46:31.733Z,2.20
2019-06-27T10:48:59.571Z,2.27
2019-06-27T10:51:27.287Z,2.08
2019-06-27T10:53:55.118Z,2.17
2019-06-27T10:56:22.856Z,2.20
2019-06-27T10:58:50.653Z,2.10
2019-06-27T11:01:18.573Z,2.42
2019-06-27T11:03:46.381Z,2.27
2019-06-27T11:06:14.148Z,2.30
2019-06-27T11:08:41.947Z,2.10
2019-06-27T11:11:09.737Z,2.05
2019-06-27T11:13:37.527Z,2.17
2019-06-27T11:16:05.796Z,2.30
2019-06-27T11:18:34.216Z,2.10
2019-06-27T11:21:02.496Z,1.98
2019-06-27T11:23:30.715Z,1.60
2019-06-27T11:25:59.508Z,1.90
2019-06-27T11:28:27.857Z,1.85
2019-06-27T11:30:56.969Z,1.80
2019-06-27T11:33:32.709Z,1.75
2019-06-27T11:35:56.031Z,1.67
2019-06-27T11:38:24.547Z,1.90
2019-06-27T11:40:55.470Z,1.80
2019-06-27T11:43:23.627Z,1.60
2019-06-27T11:45:52.016Z,1.85
2019-06-27T11:48:20.506Z,1.70
2019-06-27T11:50:49.255Z,1.70
2019-06-27T11:53:18.377Z,2.40
2019-06-27T11:55:47.605Z,1.90
2019-06-27T11:58:15.922Z,1.80
2019-06-27T12:00:44.034Z,2.15
2019-06-27T12:03:12.401Z,1.75
2019-06-27T12:05:40.865Z,1.80
2019-06-27T12:08:11.015Z,1.85
2019-06-27T12:10:42.116Z,1.45
2019-06-27T12:13:11.073Z,1.80
2019-06-27T12:15:40.379Z,1.90
2019-06-27T12:18:08.955Z,1.90
2019-06-27T12:20:38.350Z,1.70
2019-06-27T12:23:07.235Z,1.82
2019-06-27T12:25:35.493Z,1.80
2019-06-27T12:28:03.898Z,1.98
2019-06-27T12:30:31.847Z,1.90
2019-06-27T12:33:00.465Z,1.90
2019-06-27T12:35:29.048Z,1.95
2019-06-27T12:37:57.527Z,1.72
2019-06-27T12:40:25.955Z,1.90
2019-06-27T12:42:57.414Z,1.95
2019-06-27T12:45:29.349Z,1.72
2019-06-27T12:48:06.086Z,1.70
2019-06-27T12:50:28.704Z,1.50
2019-06-27T12:52:58.445Z,1.77
2019-06-27T12:55:26.900Z,1.75
2019-06-27T12:57:55.258Z,1.55
2019-06-27T13:00:23.731Z,1.57
2019-06-27T13:02:51.984Z,1.65
2019-06-27T13:05:20.824Z,1.60
2019-06-27T13:07:49.346Z,1.62
2019-06-27T13:10:17.475Z,1.50
2019-06-27T13:12:45.854Z,1.50
2019-06-27T13:15:14.462Z,1.70
2019-06-27T13:17:42.830Z,1.60
2019-06-27T13:20:11.143Z,1.70
2019-06-27T13:22:39.465Z,1.70
2019-06-27T13:25:10.981Z,1.50
2019-06-27T13:27:39.308Z,1.67
2019-06-27T13:30:07.995Z,1.70
2019-06-27T13:32:36.223Z,1.70
2019-06-27T13:35:05.341Z,1.90
2019-06-27T13:37:33.594Z,1.45
2019-06-27T13:40:04.571Z,1.52
2019-06-27T13:42:32.332Z,1.40
2019-06-27T13:45:05.411Z,1.60
2019-06-27T13:47:35.478Z,1.60
2019-06-27T13:50:04.228Z,1.55
2019-06-27T13:52:32.717Z,1.52
2019-06-27T13:55:00.994Z,1.50
2019-06-27T13:57:29.340Z,1.50
2019-06-27T13:59:57.763Z,1.67
2019-06-27T14:02:26.000Z,1.47
2019-06-27T14:04:57.593Z,1.60
2019-06-27T14:07:23.671Z,1.65
2019-06-27T14:09:56.907Z,1.60
2019-06-27T14:12:21.527Z,1.60
2019-06-27T14:14:59.326Z,1.50
2019-06-27T14:17:19.111Z,1.52
2019-06-27T14:19:50.701Z,1.60
2019-06-27T14:22:33.010Z,1.52
2019-06-27T14:24:46.621Z,1.70
2019-06-27T14:27:14.381Z,1.80
2019-06-27T14:29:42.414Z,1.60
2019-06-27T14:32:10.216Z,1.52
2019-06-27T14:34:38.083Z,1.75
2019-06-27T14:37:05.857Z,1.70
2019-06-27T14:39:33.786Z,1.70
2019-06-27T14:42:01.621Z,1.67
2019-06-27T14:44:29.375Z,1.40
2019-06-27T14:46:59.372Z,1.60
2019-06-27T14:49:27.837Z,1.67
2019-06-27T14:51:56.212Z,1.72
2019-06-27T14:54:24.056Z,1.52
2019-06-27T14:56:52.543Z,1.55
2019-06-27T14:59:21.027Z,1.80
2019-06-27T15:01:49.409Z,1.50
2019-06-27T15:04:23.259Z,1.50
2019-06-27T15:06:51.184Z,1.50
2019-06-27T15:09:19.005Z,1.67
2019-06-27T15:11:46.997Z,1.50
2019-06-27T15:14:19.986Z,1.65
2019-06-27T15:16:47.901Z,1.70
2019-06-27T15:19:15.681Z,1.67
2019-06-27T15:21:43.425Z,1.50
2019-06-27T15:24:11.201Z,1.57
2019-06-27T15:26:38.982Z,1.87
2019-06-27T15:29:06.755Z,1.60
2019-06-27T15:31:34.574Z,1.80
2019-06-27T15:34:02.429Z,1.45
2019-06-27T15:36:30.267Z,1.55
2019-06-27T15:38:58.187Z,1.70
2019-06-27T15:41:25.979Z,1.30
2019-06-27T15:43:53.711Z,1.20
2019-06-27T15:46:21.653Z,1.05
2019-06-27T15:48:49.350Z,1.37
2019-06-27T15:51:17.123Z,1.00
2019-06-27T15:53:44.890Z,1.00
2019-06-27T15:56:12.725Z,1.17
2019-06-27T15:58:40.555Z,1.67
2019-06-27T16:01:08.317Z,1.30
2019-06-27T16:03:36.084Z,1.17
2019-06-27T16:06:10.279Z,1.20
2019-06-27T16:08:33.569Z,1.10
2019-06-27T16:11:01.613Z,1.40
2019-06-27T16:13:29.305Z,1.20
2019-06-27T16:15:57.598Z,1.07
2019-06-27T16:18:25.385Z,1.30
2019-06-27T16:20:58.466Z,1.30
2019-06-27T16:23:26.330Z,1.23
2019-06-27T16:25:54.140Z,1.30
2019-06-27T16:28:21.973Z,1.50
2019-06-27T16:30:51.113Z,1.10
2019-06-27T16:33:18.895Z,1.53
2019-06-27T16:35:46.721Z,1.50
2019-06-27T16:38:14.470Z,1.23
2019-06-27T16:40:42.507Z,1.40
2019-06-27T16:43:10.301Z,1.17
2019-06-27T16:45:40.400Z,1.50
2019-06-27T16:48:07.772Z,1.30
2019-06-27T16:50:35.625Z,1.13
2019-06-27T16:53:03.498Z,1.30
2019-06-27T16:55:31.256Z,1.80
2019-06-27T16:57:59.062Z,1.23
2019-06-27T17:00:26.812Z,1.30
2019-06-27T17:02:54.627Z,1.40
2019-06-27T17:05:22.490Z,1.30
2019-06-27T17:07:50.328Z,1.57
2019-06-27T17:10:18.221Z,2.00
2019-06-27T17:12:45.990Z,1.60
2019-06-27T17:15:15.807Z,1.77
2019-06-27T17:17:43.614Z,1.90
2019-06-27T17:20:11.470Z,1.63
2019-06-27T17:22:39.265Z,1.83
2019-06-27T17:25:07.277Z,1.50
2019-06-27T17:27:36.060Z,1.80
2019-06-27T17:30:05.136Z,1.47
2019-06-27T17:32:32.970Z,1.90
2019-06-27T17:35:01.215Z,1.80
2019-06-27T17:37:29.109Z,2.10
2019-06-27T17:39:57.138Z,1.90
2019-06-27T17:42:24.941Z,1.73
2019-06-27T17:44:52.799Z,1.90
2019-06-27T17:47:20.589Z,1.83
2019-06-27T17:49:49.281Z,1.70
2019-06-27T17:52:17.287Z,2.00
2019-06-27T17:54:45.044Z,1.70
2019-06-27T17:57:12.920Z,1.97
2019-06-27T17:59:41.047Z,2.00
2019-06-27T18:02:12.895Z,2.10
2019-06-27T18:04:40.762Z,2.00
2019-06-27T18:07:14.387Z,2.00
2019-06-27T18:09:44.427Z,2.10
2019-06-27T18:12:13.216Z,2.10
2019-06-27T18:14:41.069Z,2.30
2019-06-27T18:17:11.225Z,2.07
2019-06-27T18:19:42.178Z,1.93
2019-06-27T18:22:10.872Z,2.40
2019-06-27T18:24:41.788Z,2.20
2019-06-27T18:27:10.019Z,2.00
2019-06-27T18:29:48.025Z,2.17
2019-06-27T18:32:16.109Z,2.00
2019-06-27T18:34:44.124Z,2.20
2019-06-27T18:37:11.973Z,2.20
2019-06-27T18:39:40.029Z,2.27
2019-06-27T18:42:08.071Z,2.33
2019-06-27T18:44:35.813Z,2.10
2019-06-27T18:47:03.692Z,2.23
2019-06-27T18:49:31.506Z,2.20
2019-06-27T18:51:59.538Z,2.20
2019-06-27T18:54:29.975Z,2.30
2019-06-27T18:56:57.927Z,2.00
2019-06-27T18:59:25.747Z,3.13
2019-06-27T19:01:53.765Z,2.40
2019-06-27T19:04:21.573Z,2.20
2019-06-27T19:06:58.817Z,2.30
2019-06-27T19:09:27.026Z,2.10
2019-06-27T19:11:56.721Z,2.13
2019-06-27T19:14:24.564Z,2.00
2019-06-27T19:16:52.381Z,2.37
2019-06-27T19:19:23.797Z,2.33
2019-06-27T19:22:16.557Z,2.20
2019-06-27T19:24:52.873Z,2.37
2019-06-27T19:27:21.079Z,2.03
2019-06-27T19:29:49.277Z,2.17
2019-06-27T19:32:17.546Z,1.93
2019-06-27T19:34:45.843Z,2.10
2019-06-27T19:37:14.008Z,2.17
2019-06-27T19:39:42.102Z,2.10
2019-06-27T19:42:10.386Z,2.20
2019-06-27T19:44:38.598Z,2.20
2019-06-27T19:47:07.121Z,2.10
2019-06-27T19:49:36.523Z,2.20
2019-06-27T19:52:04.330Z,2.00
2019-06-27T19:54:32.525Z,2.87
2019-06-27T19:57:00.892Z,2.37
2019-06-27T19:59:29.243Z,2.50
2019-06-27T20:01:57.546Z,2.30
2019-06-27T20:04:25.908Z,2.00
2019-06-27T20:06:53.997Z,2.33
2019-06-27T20:09:22.150Z,2.27
2019-06-27T20:11:50.437Z,2.10
2019-06-27T20:14:18.638Z,1.90
2019-06-27T20:16:47.157Z,2.00
2019-06-27T20:19:15.202Z,2.10
2019-06-27T20:21:43.049Z,2.03
2019-06-27T20:24:11.349Z,2.20
2019-06-27T20:26:40.834Z,2.20
2019-06-27T20:29:16.839Z,2.00
2019-06-27T20:31:46.059Z,2.30
2019-06-27T20:34:14.288Z,2.63
2019-06-27T20:36:42.499Z,2.20
2019-06-27T20:39:10.739Z,2.33
2019-06-27T20:41:39.267Z,2.67
2019-06-27T20:44:07.330Z,2.90
2019-06-27T20:46:35.489Z,2.43
2019-06-27T20:49:03.606Z,2.30
2019-06-27T20:51:31.534Z,2.10
2019-06-27T20:53:59.301Z,2.50
2019-06-27T20:56:30.255Z,2.57
2019-06-27T20:58:56.742Z,2.40
2019-06-27T21:01:24.598Z,2.20
2019-06-27T21:03:52.433Z,2.00
2019-06-27T21:06:20.203Z,2.10
2019-06-27T21:08:51.534Z,2.33
2019-06-27T21:11:17.642Z,2.20
2019-06-27T21:13:45.457Z,2.53
2019-06-27T21:16:13.267Z,2.17
2019-06-27T21:18:41.039Z,2.70
2019-06-27T21:21:09.122Z,2.20
2019-06-27T21:23:36.973Z,2.40
2019-06-27T21:26:04.702Z,2.13
2019-06-27T21:28:32.518Z,2.33
2019-06-27T21:31:00.448Z,2.43
2019-06-27T21:33:29.292Z,2.20
2019-06-27T21:35:57.048Z,2.17
2019-06-27T21:38:24.841Z,2.27
2019-06-27T21:40:52.848Z,1.97
2019-06-27T21:43:20.613Z,2.60
2019-06-27T21:45:48.452Z,2.23
2019-06-27T21:48:16.277Z,1.80
2019-06-27T21:50:44.180Z,2.13
2019-06-27T21:53:11.981Z,2.10
2019-06-27T21:55:39.731Z,2.50
2019-06-27T21:58:07.541Z,2.50
2019-06-27T22:00:36.658Z,2.40
2019-06-27T22:03:04.602Z,2.43
2019-06-27T22:05:32.366Z,2.23
2019-06-27T22:08:00.212Z,2.40
2019-06-27T22:10:28.033Z,2.33
2019-06-27T22:12:55.858Z,2.37
2019-06-27T22:15:23.699Z,2.37
2019-06-27T22:17:51.514Z,2.37
2019-06-27T22:20:19.420Z,2.23
2019-06-27T22:22:47.252Z,2.27
2019-06-27T22:25:15.499Z,2.50
2019-06-27T22:27:43.236Z,2.57
2019-06-27T22:30:12.731Z,2.60
2019-06-27T22:32:40.576Z,2.60
2019-06-27T22:35:08.827Z,2.23
2019-06-27T22:37:36.177Z,2.83
2019-06-27T22:40:22.338Z,2.87
2019-06-27T22:43:08.132Z,3.10
2019-06-27T22:45:54.079Z,2.40
2019-06-27T22:48:21.646Z,2.50
2019-06-27T22:51:07.164Z,2.50
2019-06-27T22:53:50.718Z,2.40
2019-06-27T22:56:18.500Z,2.33
2019-06-27T22:58:46.348Z,2.43
2019-06-27T23:01:14.082Z,2.07
2019-06-27T23:03:41.875Z,2.50
2019-06-27T23:06:09.629Z,2.43
2019-06-27T23:08:37.453Z,2.23
2019-06-27T23:11:05.450Z,2.33
2019-06-27T23:13:33.200Z,2.60
2019-06-27T23:16:00.977Z,2.37
2019-06-27T23:18:28.750Z,2.57
2019-06-27T23:20:56.502Z,1.97
2019-06-27T23:23:24.340Z,2.23
2019-06-27T23:25:52.102Z,2.47
2019-06-27T23:28:19.835Z,2.13
2019-06-27T23:30:47.560Z,2.43
2019-06-27T23:33:15.398Z,2.83
2019-06-27T23:35:43.167Z,2.47
2019-06-27T23:38:10.971Z,2.40
2019-06-27T23:40:38.701Z,2.50
2019-06-27T23:43:06.516Z,2.40
2019-06-27T23:45:34.322Z,2.60
2019-06-27T23:48:02.094Z,2.30
2019-06-27T23:50:29.899Z,2.70
2019-06-27T23:52:58.750Z,2.30
2019-06-27T23:55:26.532Z,2.20
2019-06-27T23:57:54.342Z,2.40
